Time;durP1;ratioP1;P1;durP2;ratioP2;P2;SDS_P1;SDS_P2;PMS_P1;PMS_P2;Temp;Humidity;BMP_temperature;BMP_pressure;BME280_temperature;BME280_humidity;BME280_pressure;Samples;Min_cycle;Max_cycle;Signal;HPM_P1;HPM_P2
2022/05/11 00:00:56;;;;;;;6.80;4.90;;;;;;;16.35;64.51;99188.16;5005706;28;20056;-58
2022/05/11 00:03:22;;;;;;;6.63;4.80;;;;;;;16.31;64.45;99186.28;5004197;28;20029;-58
2022/05/11 00:05:48;;;;;;;5.53;4.30;;;;;;;16.27;65.08;99187.91;5005323;28;20040;-58
2022/05/11 00:08:13;;;;;;;6.72;4.70;;;;;;;16.25;64.96;99187.38;5004844;28;20156;-58
2022/05/11 00:10:39;;;;;;;6.45;5.00;;;;;;;16.23;64.87;99184.19;5000281;28;20050;-58
2022/05/11 00:13:05;;;;;;;11.55;5.05;;;;;;;16.23;65.04;99184.19;5004253;28;20048;-58
2022/05/11 00:15:30;;;;;;;10.90;5.10;;;;;;;16.23;65.10;99184.19;4986202;28;20034;-58
2022/05/11 00:17:57;;;;;;;5.80;5.20;;;;;;;16.19;65.65;99183.91;4986976;28;20553;-58
2022/05/11 00:20:23;;;;;;;9.50;5.07;;;;;;;16.12;65.87;99173.41;4987844;28;20061;-58
2022/05/11 00:22:55;;;;;;;8.15;5.15;;;;;;;16.16;65.97;99171.75;5003755;28;20017;-58
2022/05/11 00:25:20;;;;;;;10.23;5.38;;;;;;;16.13;65.89;99174.25;5004378;28;20026;-59
2022/05/11 00:27:46;;;;;;;6.53;4.95;;;;;;;16.08;66.43;99176.97;5005416;28;20503;-58
2022/05/11 00:30:12;;;;;;;8.27;5.30;;;;;;;16.10;66.17;99172.91;5003265;28;20097;-59
2022/05/11 00:32:37;;;;;;;6.68;5.18;;;;;;;16.12;66.21;99175.31;5004028;28;20022;-57
2022/05/11 00:35:04;;;;;;;8.35;4.88;;;;;;;16.07;66.57;99170.72;5003790;28;20061;-58
2022/05/11 00:37:29;;;;;;;7.15;4.93;;;;;;;16.09;66.74;99170.47;5004967;28;20018;-58
2022/05/11 00:39:56;;;;;;;7.70;5.22;;;;;;;16.04;66.74;99175.91;5002675;28;20033;-58
2022/05/11 00:42:22;;;;;;;8.73;5.47;;;;;;;16.01;66.83;99169.16;4987188;28;20176;-58
2022/05/11 00:44:47;;;;;;;6.53;4.95;;;;;;;15.97;66.99;99165.41;5004734;28;20137;-58
2022/05/11 00:47:24;;;;;;;7.15;5.50;;;;;;;15.92;67.39;99168.13;4970648;28;20034;-58
2022/05/11 00:50:03;;;;;;;8.65;5.28;;;;;;;15.84;67.40;99163.31;4987675;28;20041;-58
2022/05/11 00:52:45;;;;;;;7.43;5.22;;;;;;;15.84;67.59;99160.59;4985527;28;20058;-58
2022/05/11 00:55:33;;;;;;;7.00;5.32;;;;;;;15.82;67.82;99160.88;5002492;28;20062;-58
2022/05/11 00:58:16;;;;;;;8.13;5.57;;;;;;;15.83;67.67;99153.59;4977095;28;20327;-58
2022/05/11 01:00:45;;;;;;;9.23;5.70;;;;;;;15.79;67.96;99145.22;4971306;28;20473;-58
2022/05/11 01:03:16;;;;;;;8.63;5.25;;;;;;;15.77;68.05;99152.00;4999231;28;20025;-58
2022/05/11 01:05:42;;;;;;;9.40;5.80;;;;;;;15.79;68.19;99147.13;4974949;28;20115;-58
2022/05/11 01:08:08;;;;;;;8.05;5.20;;;;;;;15.88;68.13;99151.66;5003168;28;20095;-58
2022/05/11 01:10:34;;;;;;;11.60;5.72;;;;;;;15.86;67.77;99153.84;4999189;28;20029;-58
2022/05/11 01:13:01;;;;;;;9.55;5.30;;;;;;;15.81;68.39;99143.06;4987687;28;20042;-58
2022/05/11 01:15:29;;;;;;;10.07;5.25;;;;;;;15.79;68.30;99145.22;4986653;28;20033;-58
2022/05/11 01:17:55;;;;;;;10.13;5.68;;;;;;;15.84;68.15;99147.09;5002818;28;20026;-58
2022/05/11 01:20:22;;;;;;;9.27;5.28;;;;;;;15.78;68.34;99146.31;4973991;28;20029;-58
2022/05/11 01:22:50;;;;;;;8.35;5.45;;;;;;;15.83;68.06;99150.91;4988651;28;20037;-58
2022/05/11 01:25:15;;;;;;;10.93;5.43;;;;;;;15.84;69.22;99152.50;5001892;28;20026;-58
2022/05/11 01:27:43;;;;;;;6.38;5.07;;;;;;;15.74;68.31;99146.06;4990112;28;20380;-58
2022/05/11 01:30:13;;;;;;;8.32;5.70;;;;;;;15.65;69.02;99155.81;4985280;28;20144;-58
2022/05/11 01:32:39;;;;;;;;;;;;;;;15.63;69.18;99151.78;5006755;28;20021;-58
2022/05/11 01:35:25;;;;;;;8.15;5.47;;;;;;;15.58;69.55;99155.31;5008371;28;19914;-58
2022/05/11 01:38:15;;;;;;;8.63;5.75;;;;;;;15.49;69.71;99146.16;4989460;28;20057;-58
2022/05/11 01:40:41;;;;;;;9.68;5.40;;;;;;;15.55;69.68;99145.06;4990047;28;20044;-58
2022/05/11 01:43:06;;;;;;;8.27;5.93;;;;;;;15.48;70.08;99142.66;5007790;28;20108;-58
2022/05/11 01:45:32;;;;;;;7.22;5.55;;;;;;;15.50;70.08;99150.47;4969845;28;20050;-57
2022/05/11 01:47:58;;;;;;;9.88;5.55;;;;;;;15.44;70.00;99148.88;4998574;28;20105;-61
2022/05/11 01:50:24;;;;;;;14.68;5.75;;;;;;;15.43;69.89;99149.97;4986072;28;20188;-58
2022/05/11 01:52:49;;;;;;;8.50;6.05;;;;;;;15.38;70.24;99141.91;4981210;28;20485;-58
2022/05/11 01:55:15;;;;;;;7.32;5.35;;;;;;;15.34;70.41;99138.13;4987345;28;20030;-58
2022/05/11 01:57:41;;;;;;;9.23;6.47;;;;;;;15.29;70.67;99145.16;4986220;28;20088;-58
2022/05/11 02:00:07;;;;;;;12.15;6.20;;;;;;;15.22;70.82;99130.31;4983487;28;20287;-58
2022/05/11 02:02:33;;;;;;;7.90;5.75;;;;;;;15.17;70.90;99141.94;4985956;28;20023;-59
2022/05/11 02:07:52;;;;;;;7.18;5.68;;;;;;;15.00;71.99;99126.09;4984936;28;20062;-58
2022/05/11 02:10:19;;;;;;;10.93;6.60;;;;;;;14.95;71.63;99127.97;4987437;28;20507;-58
2022/05/11 02:12:44;;;;;;;10.13;5.93;;;;;;;14.91;71.81;99129.63;4983288;28;20062;-58
2022/05/11 02:15:10;;;;;;;9.57;6.40;;;;;;;14.92;71.96;99125.81;4987648;28;20027;-58
2022/05/11 02:17:36;;;;;;;10.95;6.15;;;;;;;14.87;71.92;99113.94;4985530;28;20030;-58
2022/05/11 02:20:05;;;;;;;7.60;6.25;;;;;;;14.83;72.26;99110.19;4986383;28;20513;-57
2022/05/11 02:22:30;;;;;;;10.70;6.63;;;;;;;14.77;72.34;99111.28;4986879;28;20029;-58
2022/05/11 02:24:56;;;;;;;12.10;6.32;;;;;;;14.79;71.94;99111.81;4987416;28;20022;-58
2022/05/11 02:27:21;;;;;;;11.60;6.07;;;;;;;14.80;71.84;99115.31;4987452;28;20488;-58
2022/05/11 02:29:47;;;;;;;12.60;6.07;;;;;;;14.80;71.83;99112.63;4985678;28;20030;-57
2022/05/11 02:32:13;;;;;;;14.77;6.35;;;;;;;14.84;71.35;99117.19;4987354;28;20029;-57
2022/05/11 02:37:22;;;;;;;9.63;6.05;;;;;;;14.85;71.02;99113.44;4987716;28;20099;-58
2022/05/11 02:39:48;;;;;;;9.20;6.60;;;;;;;14.76;71.53;99114.25;4986685;28;20034;-58
2022/05/11 02:42:15;;;;;;;7.80;5.93;;;;;;;14.72;71.73;99113.97;4985725;28;20057;-58
2022/05/11 02:44:41;;;;;;;9.10;6.75;;;;;;;14.68;72.05;99107.53;4991619;28;20058;-58
2022/05/11 02:47:07;;;;;;;8.65;6.22;;;;;;;14.64;72.04;99111.84;5006325;28;20370;-57
2022/05/11 02:49:33;;;;;;;11.65;5.90;;;;;;;14.62;72.10;99104.00;5005164;28;20457;-58
2022/05/11 02:51:58;;;;;;;10.13;6.50;;;;;;;14.58;72.61;99104.84;5007706;28;20372;-58
2022/05/11 02:54:24;;;;;;;8.73;6.13;;;;;;;14.43;73.13;99106.44;5004938;28;20018;-58
2022/05/11 02:56:50;;;;;;;9.20;6.10;;;;;;;14.41;73.44;99111.28;5003320;28;20018;-58
2022/05/11 02:59:15;;;;;;;9.32;6.22;;;;;;;14.42;73.61;99104.00;5004742;28;20025;-57
2022/05/11 03:01:41;;;;;;;7.63;5.70;;;;;;;14.50;73.03;99094.56;5005949;28;20449;-58
2022/05/11 03:04:07;;;;;;;9.35;6.03;;;;;;;14.54;73.07;99101.06;5005443;28;20065;-58
2022/05/11 03:06:32;;;;;;;14.48;6.50;;;;;;;14.57;72.69;99100.50;5006244;28;20061;-57
2022/05/11 03:09:00;;;;;;;8.05;6.40;;;;;;;14.46;73.27;99091.59;5006230;28;20033;-58
2022/05/11 03:11:26;;;;;;;8.88;6.53;;;;;;;14.35;73.66;99098.91;5004966;28;20034;-57
2022/05/11 03:13:51;;;;;;;8.75;5.97;;;;;;;14.26;74.26;99095.13;5002741;28;20445;-58
2022/05/11 03:16:17;;;;;;;10.55;6.80;;;;;;;14.25;74.45;99093.47;5005854;28;20045;-58
2022/05/11 03:18:43;;;;;;;7.80;6.10;;;;;;;14.16;74.97;99095.13;5004735;28;20448;-58
2022/05/11 03:21:08;;;;;;;9.95;6.78;;;;;;;14.11;75.08;99095.13;5005392;28;20045;-57
2022/05/11 03:23:35;;;;;;;8.57;6.82;;;;;;;14.01;75.36;99099.41;5003246;28;20396;-58
2022/05/11 03:29:22;;;;;;;10.02;6.85;;;;;;;13.81;76.60;99092.13;5002526;28;20547;-58
2022/05/11 03:34:39;;;;;;;12.30;7.18;;;;;;;13.77;77.00;99084.81;5005612;28;20029;-57
2022/05/11 03:37:09;;;;;;;10.30;6.95;;;;;;;13.75;77.07;99089.66;4976059;28;20033;-58
2022/05/11 03:39:35;;;;;;;;;;;;;;;13.70;77.30;99087.78;4988323;28;20388;-57
2022/05/11 03:42:00;;;;;;;10.10;6.95;;;;;;;13.68;77.54;99091.81;4994577;28;20205;-58
2022/05/11 03:44:28;;;;;;;10.35;7.18;;;;;;;13.63;77.84;99091.78;5003936;28;20057;-57
2022/05/11 03:46:53;;;;;;;11.68;7.13;;;;;;;13.64;77.76;99085.34;5005735;28;20034;-57
2022/05/11 03:49:19;;;;;;;10.00;7.18;;;;;;;13.64;78.00;99083.47;5004728;28;20477;-59
2022/05/11 03:51:45;;;;;;;10.27;7.25;;;;;;;13.70;77.78;99071.59;5005779;28;20111;-58
2022/05/11 03:54:10;;;;;;;10.20;7.22;;;;;;;13.82;77.27;99079.44;5005868;28;20522;-57
2022/05/11 03:56:36;;;;;;;10.73;7.07;;;;;;;13.76;77.62;99069.75;5003658;28;20101;-57
2022/05/11 03:59:01;;;;;;;9.55;7.05;;;;;;;13.97;76.58;99074.06;5004543;28;20643;-58
2022/05/11 04:01:27;;;;;;;10.93;7.15;;;;;;;13.94;76.48;99076.50;5005550;28;20029;-58
2022/05/11 04:03:53;;;;;;;9.07;6.65;;;;;;;13.93;76.67;99074.91;4980399;28;20045;-57
2022/05/11 04:06:18;;;;;;;10.40;6.90;;;;;;;14.03;75.90;99078.41;5004281;28;20034;-58
2022/05/11 04:08:44;;;;;;;10.38;7.20;;;;;;;14.31;75.62;99070.84;5004643;28;20091;-58
2022/05/11 04:11:11;;;;;;;10.23;7.07;;;;;;;15.03;72.55;99070.75;4987080;28;20511;-57
2022/05/11 04:13:40;;;;;;;10.13;6.70;;;;;;;15.65;69.63;99063.97;5003770;28;20026;-57
2022/05/11 04:16:07;;;;;;;7.85;6.22;;;;;;;15.58;69.62;99068.88;5002046;28;20029;-57
2022/05/11 04:18:33;;;;;;;14.85;6.72;;;;;;;15.79;69.57;99082.28;5003986;28;20105;-58
2022/05/11 04:20:58;;;;;;;9.43;6.60;;;;;;;16.34;67.47;99072.94;5003870;28;20553;-59
2022/05/11 04:23:24;;;;;;;7.97;6.13;;;;;;;16.49;66.05;99073.88;5004205;28;20424;-58
2022/05/11 04:25:50;;;;;;;7.85;6.72;;;;;;;17.08;64.54;99075.47;5005693;28;20282;-58
2022/05/11 04:28:15;;;;;;;8.63;6.15;;;;;;;17.94;61.64;99074.59;5005924;28;20543;-63
2022/05/11 04:30:41;;;;;;;9.80;5.75;;;;;;;18.62;59.99;99082.16;5004391;28;20081;-58
2022/05/11 04:33:07;;;;;;;9.95;5.65;;;;;;;18.72;58.96;99079.25;5004228;28;20033;-58
2022/05/11 04:35:34;;;;;;;9.20;5.63;;;;;;;18.91;58.33;99081.09;5003945;28;20130;-58
2022/05/11 04:38:00;;;;;;;8.68;5.80;;;;;;;17.97;61.17;99084.84;4998158;28;20088;-58
2022/05/11 04:40:26;;;;;;;8.10;6.07;;;;;;;18.90;58.23;99076.78;5004555;28;20014;-58
2022/05/11 04:42:52;;;;;;;8.90;5.82;;;;;;;17.60;62.30;99075.63;5003315;28;20041;-58
2022/05/11 04:45:17;;;;;;;8.38;5.95;;;;;;;18.91;58.98;99076.47;5003579;28;20045;-58
2022/05/11 04:47:43;;;;;;;8.10;5.30;;;;;;;19.58;56.20;99073.19;4976660;28;20116;-58
2022/05/11 04:50:10;;;;;;;7.85;5.90;;;;;;;20.14;55.03;99082.00;4986365;28;20054;-59
2022/05/11 04:52:35;;;;;;;7.85;5.55;;;;;;;21.82;51.04;99085.91;4990619;28;20077;-58
2022/05/11 04:55:01;;;;;;;9.00;5.10;;;;;;;21.31;51.29;99083.53;5008227;28;20547;-58
2022/05/11 04:57:27;;;;;;;8.13;5.40;;;;;;;21.83;50.21;99088.31;4990743;28;20624;-58
2022/05/11 04:59:53;;;;;;;6.47;4.68;;;;;;;21.78;49.70;99091.19;5007042;28;20109;-58
2022/05/11 05:02:21;;;;;;;8.77;4.82;;;;;;;21.79;50.45;99089.25;5008561;28;20339;-58
2022/05/11 05:04:46;;;;;;;5.95;4.50;;;;;;;22.96;47.87;99079.91;5009365;28;20068;-58
2022/05/11 05:07:12;;;;;;;7.00;4.80;;;;;;;20.82;51.32;99082.75;5006902;28;20030;-58
2022/05/11 05:09:37;;;;;;;6.38;4.80;;;;;;;20.92;52.36;99081.69;5008031;28;20081;-58
2022/05/11 05:12:05;;;;;;;6.97;4.60;;;;;;;21.22;51.84;99082.75;4988058;28;21894;-58
2022/05/11 05:14:30;;;;;;;8.63;5.22;;;;;;;20.84;52.91;99088.69;5008320;28;20037;-58
2022/05/11 05:17:03;;;;;;;7.80;4.88;;;;;;;21.44;51.88;99091.94;5005737;28;20425;-58
2022/05/11 05:19:29;;;;;;;6.88;4.68;;;;;;;22.69;48.81;99091.28;4987460;28;20041;-58
2022/05/11 05:21:55;;;;;;;8.77;5.25;;;;;;;23.01;48.01;99098.91;5006867;28;20033;-58
2022/05/11 05:24:20;;;;;;;9.07;5.20;;;;;;;21.43;50.79;99090.34;4987861;28;20109;-58
2022/05/11 05:26:46;;;;;;;8.20;4.57;;;;;;;22.73;48.73;99093.03;5007751;28;20401;-58
2022/05/11 05:31:56;;;;;;;7.18;4.60;;;;;;;21.15;52.40;99090.56;4989801;28;20041;-57
2022/05/11 05:34:21;;;;;;;6.03;4.47;;;;;;;20.97;52.61;99094.38;5005259;28;20564;-58
2022/05/11 05:36:47;;;;;;;8.00;5.03;;;;;;;24.31;45.30;99099.97;5006750;28;20022;-58
2022/05/11 05:39:13;;;;;;;6.78;4.80;;;;;;;22.40;48.85;99106.44;4999492;28;20032;-58
2022/05/11 05:41:38;;;;;;;6.30;4.40;;;;;;;22.36;49.64;99105.47;4986244;28;20033;-58
2022/05/11 05:44:06;;;;;;;9.27;4.72;;;;;;;22.49;49.42;99093.59;5006241;28;20124;-57
2022/05/11 05:46:33;;;;;;;5.40;4.20;;;;;;;23.03;48.25;99101.31;5007425;28;20141;-57
2022/05/11 05:48:59;;;;;;;9.10;5.13;;;;;;;22.28;49.55;99095.38;5007724;28;20076;-56
2022/05/11 05:51:26;;;;;;;8.82;4.95;;;;;;;22.80;48.44;99095.25;5007149;28;20069;-58
2022/05/11 05:53:52;;;;;;;8.18;4.97;;;;;;;23.02;48.30;99099.72;5006520;28;20057;-58
2022/05/11 05:56:17;;;;;;;7.35;4.50;;;;;;;23.49;46.83;99091.44;5006538;28;20463;-57
2022/05/11 05:58:44;;;;;;;5.40;4.55;;;;;;;23.10;47.70;99101.59;5004465;28;20030;-58
2022/05/11 06:01:10;;;;;;;8.65;4.60;;;;;;;23.97;46.05;99094.81;4996317;28;20063;-58
2022/05/11 06:03:36;;;;;;;8.68;4.57;;;;;;;23.53;46.88;99091.56;5006844;28;20324;-58
2022/05/11 06:06:01;;;;;;;6.35;4.13;;;;;;;25.24;43.40;99101.56;5006677;28;20058;-58
2022/05/11 06:08:29;;;;;;;7.55;4.30;;;;;;;25.53;42.91;99092.25;4978123;28;20038;-58
2022/05/11 06:10:55;;;;;;;6.43;4.53;;;;;;;24.30;45.32;99090.16;5003846;28;20810;-58
2022/05/11 06:13:22;;;;;;;7.35;4.15;;;;;;;24.38;45.26;99093.13;4987142;28;20035;-58
2022/05/11 06:15:52;;;;;;;9.38;4.40;;;;;;;25.27;43.07;99084.41;4989936;28;20029;-58
2022/05/11 06:18:17;;;;;;;6.00;4.22;;;;;;;25.95;42.73;99087.28;4988126;28;20392;-58
2022/05/11 06:20:43;;;;;;;7.32;4.45;;;;;;;24.27;44.35;99085.34;5006957;28;20528;-58
2022/05/11 06:23:08;;;;;;;6.88;4.40;;;;;;;24.47;44.99;99091.16;4967517;28;20042;-58
2022/05/11 06:25:37;;;;;;;5.55;4.20;;;;;;;24.31;46.73;99089.03;5007379;28;20088;-58
2022/05/11 06:28:03;;;;;;;6.63;4.13;;;;;;;24.13;46.18;99087.56;4989845;28;20598;-58
2022/05/11 06:30:29;;;;;;;7.53;4.50;;;;;;;25.92;42.91;99096.22;4994993;28;20520;-59
2022/05/11 06:32:55;;;;;;;6.85;4.53;;;;;;;26.73;41.50;99092.53;5004902;28;20458;-58
2022/05/11 06:35:21;;;;;;;7.55;4.07;;;;;;;25.84;42.84;99091.63;5007070;28;20030;-58
2022/05/11 06:37:48;;;;;;;7.13;4.00;;;;;;;26.13;41.75;99087.75;5007476;28;20550;-57
2022/05/11 06:40:14;;;;;;;6.63;4.20;;;;;;;23.57;47.97;99081.56;5005913;28;20030;-57
2022/05/11 06:42:41;;;;;;;6.38;4.38;;;;;;;26.01;42.67;99079.59;5006301;28;20037;-57
2022/05/11 06:45:07;;;;;;;6.18;4.22;;;;;;;26.36;42.51;99079.78;5003616;28;20038;-58
2022/05/11 06:47:33;;;;;;;6.05;4.28;;;;;;;26.81;40.62;99078.63;5005398;28;20053;-58
2022/05/11 06:49:59;;;;;;;6.63;3.75;;;;;;;26.35;42.18;99082.88;4977052;28;20051;-59
2022/05/11 06:52:24;;;;;;;12.27;3.80;;;;;;;26.34;42.18;99076.59;4994877;28;20034;-58
2022/05/11 07:00:19;;;;;;;7.43;3.90;;;;;;;25.10;44.99;99080.72;4990757;28;20372;-58
2022/05/11 07:02:44;;;;;;;5.15;3.95;;;;;;;27.48;40.48;99067.66;5006193;28;20026;-58
2022/05/11 07:05:10;;;;;;;9.02;4.40;;;;;;;24.84;45.33;99066.56;5005579;28;20558;-58
2022/05/11 07:07:35;;;;;;;6.88;3.80;;;;;;;25.90;43.92;99068.28;4984908;28;20542;-58
2022/05/11 07:10:03;;;;;;;6.55;3.80;;;;;;;27.73;40.29;99065.44;5005841;28;20033;-58
2022/05/11 07:12:43;;;;;;;5.70;3.80;;;;;;;27.03;41.33;99063.44;5005340;28;20064;-58
2022/05/11 07:15:09;;;;;;;5.10;3.75;;;;;;;26.59;42.06;99060.00;5005300;28;20109;-58
2022/05/11 07:17:39;;;;;;;6.72;3.80;;;;;;;25.81;43.04;99053.91;5005858;28;20503;-58
2022/05/11 07:20:10;;;;;;;15.18;4.35;;;;;;;25.94;42.68;99062.94;5006575;28;20037;-58
2022/05/11 07:22:36;;;;;;;15.35;3.97;;;;;;;26.95;41.85;99066.38;5001409;28;20026;-58
2022/05/11 07:25:02;;;;;;;12.35;4.20;;;;;;;27.04;41.43;99056.78;5005523;28;20416;-57
2022/05/11 07:27:28;;;;;;;15.10;4.13;;;;;;;26.26;42.97;99063.81;4971611;28;20033;-58
2022/05/11 07:29:53;;;;;;;9.05;3.55;;;;;;;26.55;41.62;99053.59;5004908;28;20444;-57
2022/05/11 07:32:19;;;;;;;6.13;3.90;;;;;;;25.83;43.91;99048.84;5006242;28;20088;-58
2022/05/11 07:34:45;;;;;;;6.57;3.80;;;;;;;26.23;43.12;99048.00;5006328;28;20021;-57
2022/05/11 07:37:10;;;;;;;8.80;3.85;;;;;;;27.62;40.90;99053.38;4986762;28;20034;-58
2022/05/11 07:39:39;;;;;;;6.10;3.63;;;;;;;28.44;39.28;99053.44;5002897;28;20109;-58
2022/05/11 07:42:05;;;;;;;10.13;3.85;;;;;;;27.99;38.91;99047.50;4972718;28;20555;-58
2022/05/11 07:44:34;;;;;;;7.18;3.60;;;;;;;28.06;39.50;99055.91;5004257;28;20041;-57
2022/05/11 07:46:59;;;;;;;7.78;3.67;;;;;;;28.03;40.33;99051.13;5003934;28;20036;-57
2022/05/11 07:49:25;;;;;;;6.18;3.50;;;;;;;27.81;40.17;99052.63;5005588;28;20061;-58
2022/05/11 07:51:52;;;;;;;10.32;4.22;;;;;;;27.26;41.09;99046.31;5005158;28;20134;-58
2022/05/11 07:54:18;;;;;;;7.35;3.55;;;;;;;27.90;40.05;99049.66;5004235;28;20022;-58
2022/05/11 08:02:12;;;;;;;6.93;3.90;;;;;;;26.18;43.63;99042.78;4989312;28;20045;-57
2022/05/11 08:04:39;;;;;;;8.30;3.78;;;;;;;27.31;40.72;99037.78;5006147;28;20419;-57
2022/05/11 08:07:05;;;;;;;6.75;4.05;;;;;;;26.77;41.68;99047.47;4989268;28;20033;-57
2022/05/11 08:09:30;;;;;;;7.07;4.20;;;;;;;26.28;42.39;99045.00;5004340;28;20041;-57
2022/05/11 08:11:56;;;;;;;5.03;3.92;;;;;;;26.97;41.24;99040.09;5002445;28;20428;-57
2022/05/11 08:14:24;;;;;;;7.65;4.30;;;;;;;25.96;43.45;99038.63;5003885;28;20029;-57
2022/05/11 08:16:52;;;;;;;6.50;4.13;;;;;;;26.27;43.15;99046.16;5003440;28;20030;-57
2022/05/11 08:19:24;;;;;;;7.80;4.15;;;;;;;25.49;44.80;99039.25;5004443;28;20467;-57
2022/05/11 08:21:51;;;;;;;10.27;4.50;;;;;;;26.36;42.96;99035.81;5000374;28;20408;-57
2022/05/11 08:24:16;;;;;;;8.90;3.90;;;;;;;26.39;43.04;99035.13;4974512;28;20113;-57
2022/05/11 08:26:42;;;;;;;11.27;4.57;;;;;;;24.88;45.16;99029.09;5003206;28;20101;-57
2022/05/11 08:29:08;;;;;;;9.25;4.00;;;;;;;25.79;43.35;99028.75;5008580;28;20030;-57
2022/05/11 08:34:35;;;;;;;8.00;4.35;;;;;;;26.60;41.82;99023.09;4910007;29;20043;-57
2022/05/11 08:37:01;;;;;;;6.50;4.38;;;;;;;26.57;43.17;99029.31;4986458;28;20030;-58
2022/05/11 08:39:27;;;;;;;8.82;3.70;;;;;;;26.38;42.77;99028.00;4988182;28;20022;-57
2022/05/11 08:41:53;;;;;;;5.72;4.20;;;;;;;26.22;44.35;99018.97;5008517;28;20514;-57
2022/05/11 08:44:26;;;;;;;8.40;4.32;;;;;;;25.80;43.49;99022.09;4990320;28;20446;-57
2022/05/11 08:47:17;;;;;;;6.22;4.30;;;;;;;26.76;42.18;99025.84;5009069;28;20037;-57
2022/05/11 08:50:11;;;;;;;9.32;4.55;;;;;;;27.00;42.24;99022.09;5006025;28;20026;-57
2022/05/11 08:52:47;;;;;;;6.15;3.70;;;;;;;26.07;43.34;99022.47;4999074;28;20456;-57
2022/05/11 08:55:32;;;;;;;7.90;3.90;;;;;;;26.03;43.21;99017.69;4987433;28;20018;-57
2022/05/11 08:57:58;;;;;;;5.57;3.42;;;;;;;25.02;44.44;99018.59;4999334;28;20033;-57
2022/05/11 09:00:24;;;;;;;5.38;3.80;;;;;;;25.88;43.85;99012.94;4990266;28;20026;-57
2022/05/11 09:02:55;;;;;;;8.90;4.18;;;;;;;27.27;41.83;99028.66;5003818;28;20088;-57
2022/05/11 09:05:23;;;;;;;7.93;3.97;;;;;;;27.45;39.74;99018.03;5005887;28;20392;-57
2022/05/11 09:07:51;;;;;;;11.20;3.95;;;;;;;26.92;40.27;99018.38;5006561;28;20033;-57
2022/05/11 09:10:28;;;;;;;8.15;3.92;;;;;;;27.20;39.93;99012.75;5003663;28;20579;-57
2022/05/11 09:13:06;;;;;;;6.03;3.67;;;;;;;27.18;40.03;99015.06;5002740;28;20243;-57
2022/05/11 09:16:01;;;;;;;7.82;3.80;;;;;;;27.79;39.69;99021.09;5000330;28;20109;-58
2022/05/11 09:18:30;;;;;;;6.78;3.70;;;;;;;28.12;38.51;99015.88;5001571;28;20030;-57
2022/05/11 09:20:55;;;;;;;6.30;3.60;;;;;;;28.48;38.13;99005.53;5007948;28;20051;-58
2022/05/11 09:23:36;;;;;;;7.68;3.92;;;;;;;28.24;37.89;99008.59;4985991;28;20050;-57
2022/05/11 09:26:12;;;;;;;10.18;3.85;;;;;;;27.86;39.09;99010.25;4989296;28;20049;-57
2022/05/11 09:28:39;;;;;;;9.10;3.92;;;;;;;26.67;39.94;99002.09;5007509;28;20026;-57
2022/05/11 09:31:13;;;;;;;6.90;4.05;;;;;;;27.83;38.71;99009.03;5000803;28;20476;-57
2022/05/11 09:33:58;;;;;;;8.88;3.60;;;;;;;27.86;38.87;98993.75;5007615;28;20030;-57
2022/05/11 09:36:37;;;;;;;7.72;3.55;;;;;;;27.98;39.34;98996.31;4987816;28;20064;-57
2022/05/11 09:39:12;;;;;;;5.55;3.60;;;;;;;27.52;38.42;98990.66;4999498;28;20041;-57
2022/05/11 09:41:39;;;;;;;6.65;3.55;;;;;;;27.98;37.45;98985.28;5004804;28;20044;-57
2022/05/11 09:44:17;;;;;;;7.75;3.80;;;;;;;27.84;39.35;98996.06;5004339;28;20010;-57
2022/05/11 09:46:43;;;;;;;6.88;3.92;;;;;;;27.18;39.51;98995.00;5005880;28;20393;-57
2022/05/11 09:49:26;;;;;;;7.50;3.75;;;;;;;28.50;37.73;98981.13;5007273;28;20122;-57
2022/05/11 09:51:54;;;;;;;7.15;3.40;;;;;;;29.14;37.22;98978.59;5003584;28;20037;-57
2022/05/11 09:54:43;;;;;;;5.32;3.70;;;;;;;28.51;38.79;98979.97;5006372;28;20039;-57
2022/05/11 09:57:08;;;;;;;6.20;3.90;;;;;;;27.85;38.66;98987.41;4989077;28;20017;-59
2022/05/11 09:59:41;;;;;;;10.38;3.70;;;;;;;28.70;37.81;98978.28;5007418;28;20502;-57
2022/05/11 10:02:30;;;;;;;8.90;3.90;;;;;;;28.99;37.16;98977.56;5003472;28;20077;-57
2022/05/11 10:05:03;;;;;;;9.25;4.03;;;;;;;28.58;38.38;98962.75;5008184;28;20038;-57
2022/05/11 10:07:32;;;;;;;6.45;3.40;;;;;;;28.02;36.61;98958.63;4985900;28;20030;-56
2022/05/11 10:10:02;;;;;;;7.18;3.75;;;;;;;28.44;37.83;98963.28;4978081;28;20108;-56
2022/05/11 10:12:29;;;;;;;7.85;3.45;;;;;;;28.14;36.12;98965.91;4985119;28;20431;-59
2022/05/11 10:23:29;;;;;;;10.20;3.38;;;;;;;28.08;34.80;98954.41;4976988;28;20110;-58
2022/05/11 10:26:08;;;;;;;12.30;3.40;;;;;;;28.59;34.13;98948.59;5004179;28;20034;-59
2022/05/11 10:28:57;;;;;;;6.47;3.45;;;;;;;28.67;33.63;98943.19;4986709;28;20112;-59
2022/05/11 10:31:31;;;;;;;5.78;3.28;;;;;;;28.56;35.12;98943.81;4979181;28;20034;-55
2022/05/11 10:34:11;;;;;;;7.03;3.70;;;;;;;28.00;34.85;98938.91;5007280;28;20029;-56
2022/05/11 10:36:58;;;;;;;7.22;3.38;;;;;;;28.87;34.58;98939.16;5004251;28;20060;-56
2022/05/11 10:40:09;;;;;;;5.32;3.03;;;;;;;28.52;35.16;98915.41;5005995;28;20018;-56
2022/05/11 10:42:43;;;;;;;17.40;3.88;;;;;;;27.08;37.49;98916.59;5001725;28;20345;-56
2022/05/11 10:45:20;;;;;;;9.15;3.83;;;;;;;27.66;36.74;98918.59;4985622;28;20069;-56
2022/05/11 10:48:08;;;;;;;12.00;3.90;;;;;;;27.98;36.49;98921.94;4988720;28;20026;-59
2022/05/11 10:50:50;;;;;;;9.93;4.00;;;;;;;27.99;36.51;98915.28;5002277;28;20033;-56
2022/05/11 10:53:25;;;;;;;10.07;4.05;;;;;;;27.88;36.58;98915.09;4997416;28;20040;-56
2022/05/11 10:56:07;;;;;;;8.02;3.50;;;;;;;28.03;37.05;98910.66;4983469;28;20195;-57
2022/05/11 10:58:59;;;;;;;6.50;3.67;;;;;;;28.11;36.56;98911.56;4971735;28;20049;-57
2022/05/11 11:01:25;;;;;;;8.80;3.63;;;;;;;28.48;36.13;98903.53;5002166;28;20312;-56
2022/05/11 11:04:09;;;;;;;14.15;3.97;;;;;;;27.66;36.35;98916.63;5005466;28;20026;-56
2022/05/11 11:09:52;;;;;;;9.52;4.15;;;;;;;27.72;36.56;98919.88;4987969;28;20033;-56
2022/05/11 11:12:48;;;;;;;6.88;3.80;;;;;;;28.03;35.84;98912.59;5004130;28;20445;-56
2022/05/11 11:15:17;;;;;;;19.35;3.88;;;;;;;28.57;36.56;98906.81;5004259;28;20037;-57
2022/05/11 11:17:43;;;;;;;9.90;3.72;;;;;;;28.22;35.18;98895.22;5003885;28;20441;-57
2022/05/11 11:20:09;;;;;;;9.73;4.10;;;;;;;28.14;35.47;98902.56;4972642;28;20602;-57
2022/05/11 11:23:03;;;;;;;20.65;4.20;;;;;;;28.00;36.03;98908.59;4968061;28;20358;-57
2022/05/11 11:25:51;;;;;;;13.00;4.00;;;;;;;28.85;35.13;98902.09;4998679;28;20030;-58
2022/05/11 11:28:17;;;;;;;10.38;3.55;;;;;;;29.15;34.55;98902.13;5006288;28;20033;-57
2022/05/11 11:31:04;;;;;;;10.63;3.88;;;;;;;27.31;37.51;98895.50;5004316;28;20037;-57
2022/05/11 11:33:34;;;;;;;8.00;3.33;;;;;;;28.32;35.45;98883.56;5004964;28;20030;-57
2022/05/11 11:36:28;;;;;;;8.85;3.78;;;;;;;27.60;36.42;98876.78;5004905;28;20026;-57
2022/05/11 11:38:59;;;;;;;10.07;3.70;;;;;;;28.02;36.58;98881.50;5005728;28;20031;-57
2022/05/11 11:41:50;;;;;;;10.20;3.90;;;;;;;28.12;36.49;98878.13;4988017;28;20064;-58
2022/05/11 11:44:30;;;;;;;7.47;4.03;;;;;;;27.66;37.64;98883.59;4974548;28;20046;-57
2022/05/11 11:46:57;;;;;;;7.68;3.70;;;;;;;27.64;36.76;98869.41;5004750;28;20033;-58
2022/05/11 11:49:26;;;;;;;8.32;3.63;;;;;;;27.80;36.46;98869.28;5005251;28;20044;-57
2022/05/11 11:51:53;;;;;;;9.03;3.43;;;;;;;28.08;35.60;98868.22;5005102;28;20040;-58
2022/05/11 11:54:37;;;;;;;8.05;3.40;;;;;;;28.32;33.82;98861.53;4986376;28;20284;-58
2022/05/11 11:57:23;;;;;;;9.10;3.42;;;;;;;28.34;33.61;98864.69;5005579;28;20029;-58
2022/05/11 11:59:59;;;;;;;10.70;3.40;;;;;;;28.14;32.51;98862.03;4984333;28;20048;-58
2022/05/11 12:02:40;;;;;;;7.15;3.22;;;;;;;28.35;32.98;98858.00;5000249;28;20221;-58
2022/05/11 12:05:27;;;;;;;9.30;3.20;;;;;;;28.25;32.68;98862.19;5004718;28;20464;-58
2022/05/11 12:16:23;;;;;;;12.70;3.38;;;;;;;27.93;33.06;98867.16;4985621;28;20036;-57
2022/05/11 12:18:49;;;;;;;9.57;3.20;;;;;;;27.75;33.48;98858.56;4996918;28;20036;-58
2022/05/11 12:21:34;;;;;;;5.47;2.92;;;;;;;28.38;33.17;98862.78;4984108;28;20345;-57
2022/05/11 12:24:03;;;;;;;14.70;3.75;;;;;;;28.94;32.69;98853.75;5004180;28;21460;-57
2022/05/11 12:26:38;;;;;;;7.78;3.58;;;;;;;28.28;33.38;98852.38;4985452;28;20025;-59
2022/05/11 12:32:08;;;;;;;10.20;3.22;;;;;;;28.47;31.62;98844.06;5001082;28;20405;-58
2022/05/11 12:34:43;;;;;;;8.77;3.38;;;;;;;28.90;30.97;98850.16;5003214;28;20041;-58